Terminal Aerodrome Forecast
Issued by NWS

Home | Current Version | Previous Version | Graphics & Text | Print | Product List | Glossary On
Versions: 1 2 3 4 5 6 7 8 9 10 11 12 13 14 15 16 17 18 19
000
FTUS43 KICT 011100
TAFCNU
TAF
KCNU 011120Z 0112/0212 VRB04KT 3SM BR SCT060
      TEMPO 0112/0113 1/4SM FG VV002
     FM011300 VRB03KT P6SM SCT060=

USA.gov is the U.S. government's official web portal to all federal, state and local government web resources and services.